To NAV CANADA Home Page Login to a new session Search on AWWS site Feedback and Comments Disclaimer Vers la page française équivalente Tips FAQ What's new on the site To the Forecasts and Observations / NOTAM section To "File a Flight Plan" website Publications and other links Update of the User's profile FIC Telephone Numbers My Weather Data Folder Route Weather Data Regional Weather Data Local Weather Data To the Forecasts and Observations / NOTAM section
Request Generated 04/29/2016 at 21:43:20 UTC . Weather information available at that time is displayed.

METAR/TAF

STEPHENVILLE/NL    

METAR CYJT 292100Z 25021G35KT 15SM SKC 02/M03 A2987 RMK SLP119=
METAR CYJT 292000Z 26028G36KT 15SM FEW020 03/M04 A2988 RMK SC1
SLP120=
METAR CYJT 291900Z 25030G36KT 15SM FEW020 03/M04 A2989 RMK SC1
SLP123=

TAF CYJT 291741Z 2918/3018 26022G32KT P6SM FEW020
BECMG 2918/2920 26025G35KT
BECMG 2923/3001 26018G28KT
FM300500 26015G25KT P6SM -SN BKN040
FM301100 30015G25KT P6SM BKN030
BECMG 3016/3018 30012KT
RMK NXT FCST BY 300000Z=
Your time UTC time
Weather data provided by Environment Canada and NAV CANADA